Flugplatz Strausberg

Für EDAY sind keine METAR/TAF Berichte vorhanden.
Es werden die Flugwettermeldungen vom Flugplatz Berlin-Schönefeld International in 34 km Entfernung angezeigt.

Bericht für EDDB

vom 07.08. um 17:20 UTC

Wind 6 kt aus 140°

Sichtweite 10 km oder mehr

gute Sicht, keine Wolken < 5000 ft, keine CB, keine Wettererscheinungen (CAVOK)

Temperatur 31.0°C

Taupunkt 16.0°C

Luftfeuchtigkeit 40%

Luftdruck 1019 hPa

keine wesentliche Wetteränderung innerhalb den nächsten 2 Stunden zu erwarten

EDDB 071720Z 14006KT 110V180 CAVOK 31/16 Q1019 NOSIG

Prognose für EDDB

vom 07.08. um 17:00 UTC

Zwischen 18:00 UTC und 13:00 UTC

Wind 4 kt aus 120°

Sichtweite 10 km oder mehr

keine signifikanten Wettererscheinungen

keine Wolken


Am 08.08. zwischen 13:00 und 15:00 UTC übergehend zu

Wind 5 kt aus 30°

Sichtweite 10 km oder mehr

keine signifikanten Wettererscheinungen

keine Wolken

TAF EDDB 071700Z 0718/0818 12004KT CAVOK BECMG 0813/0815 03005KT
Impressum